sensor_id;sensor_type;location;lat;lon;timestamp;pressure;altitude;pressure_sealevel;temperature;humidity
54236;BME280;40151;43.606;1.472;2023-08-24T00:01:30;99101.56;;;35.49;44.76
54236;BME280;40151;43.606;1.472;2023-08-24T00:03:56;99105.28;;;35.48;44.73
54236;BME280;40151;43.606;1.472;2023-08-24T00:06:21;99107.00;;;35.49;44.36
54236;BME280;40151;43.606;1.472;2023-08-24T00:08:46;99099.88;;;35.48;44.46
54236;BME280;40151;43.606;1.472;2023-08-24T00:11:12;99105.28;;;35.48;44.50
54236;BME280;40151;43.606;1.472;2023-08-24T00:13:43;99097.38;;;35.46;44.72
54236;BME280;40151;43.606;1.472;2023-08-24T00:16:14;99091.09;;;35.46;44.77
54236;BME280;40151;43.606;1.472;2023-08-24T00:18:40;99089.44;;;35.45;44.77
54236;BME280;40151;43.606;1.472;2023-08-24T00:21:06;99090.47;;;35.44;44.50
54236;BME280;40151;43.606;1.472;2023-08-24T00:23:32;99082.34;;;35.44;44.72
54236;BME280;40151;43.606;1.472;2023-08-24T00:25:58;99087.09;;;35.42;44.19
54236;BME280;40151;43.606;1.472;2023-08-24T00:28:25;99091.53;;;35.43;44.74
54236;BME280;40151;43.606;1.472;2023-08-24T00:30:51;99084.38;;;35.42;44.56
54236;BME280;40151;43.606;1.472;2023-08-24T00:33:16;99087.31;;;35.40;44.62
54236;BME280;40151;43.606;1.472;2023-08-24T00:35:41;99089.81;;;35.42;44.51
54236;BME280;40151;43.606;1.472;2023-08-24T00:38:07;99090.84;;;35.41;44.60
54236;BME280;40151;43.606;1.472;2023-08-24T00:40:32;99095.47;;;35.40;44.88
54236;BME280;40151;43.606;1.472;2023-08-24T00:42:58;99086.47;;;35.40;44.36
54236;BME280;40151;43.606;1.472;2023-08-24T00:45:23;99083.94;;;35.38;44.69
54236;BME280;40151;43.606;1.472;2023-08-24T00:47:49;99085.00;;;35.37;44.63
54236;BME280;40151;43.606;1.472;2023-08-24T00:50:16;99086.84;;;35.37;44.79
54236;BME280;40151;43.606;1.472;2023-08-24T00:52:42;99083.13;;;35.38;44.71
54236;BME280;40151;43.606;1.472;2023-08-24T00:55:08;99080.81;;;35.34;44.67
54236;BME280;40151;43.606;1.472;2023-08-24T00:57:35;99082.88;;;35.32;44.79
54236;BME280;40151;43.606;1.472;2023-08-24T01:00:04;99080.56;;;35.29;44.12
54236;BME280;40151;43.606;1.472;2023-08-24T01:02:37;99085.97;;;35.29;44.22
54236;BME280;40151;43.606;1.472;2023-08-24T01:05:02;99080.97;;;35.26;44.07
54236;BME280;40151;43.606;1.472;2023-08-24T01:07:30;99083.03;;;35.24;44.00
54236;BME280;40151;43.606;1.472;2023-08-24T01:09:56;99074.25;;;35.22;43.86
54236;BME280;40151;43.606;1.472;2023-08-24T01:12:35;99072.97;;;35.18;43.91
54236;BME280;40151;43.606;1.472;2023-08-24T01:15:18;99072.97;;;35.18;44.00
54236;BME280;40151;43.606;1.472;2023-08-24T01:17:46;99068.59;;;35.17;43.99
54236;BME280;40151;43.606;1.472;2023-08-24T01:20:14;99067.97;;;35.15;44.08
54236;BME280;40151;43.606;1.472;2023-08-24T01:22:57;99066.28;;;35.14;44.17
54236;BME280;40151;43.606;1.472;2023-08-24T01:25:24;99069.00;;;35.14;43.90
54236;BME280;40151;43.606;1.472;2023-08-24T01:27:54;99060.88;;;35.14;43.95
54236;BME280;40151;43.606;1.472;2023-08-24T01:30:20;99057.50;;;35.12;43.76
54236;BME280;40151;43.606;1.472;2023-08-24T01:32:46;99054.97;;;35.10;43.86
54236;BME280;40151;43.606;1.472;2023-08-24T01:35:11;99047.88;;;35.09;43.92
54236;BME280;40151;43.606;1.472;2023-08-24T01:37:37;99054.16;;;35.10;44.27
54236;BME280;40151;43.606;1.472;2023-08-24T01:40:27;99047.03;;;35.08;44.25
54236;BME280;40151;43.606;1.472;2023-08-24T01:43:03;99046.19;;;35.08;44.00
54236;BME280;40151;43.606;1.472;2023-08-24T01:45:31;99051.78;;;35.06;44.13
54236;BME280;40151;43.606;1.472;2023-08-24T01:48:01;99054.50;;;35.06;43.92
54236;BME280;40151;43.606;1.472;2023-08-24T01:50:29;99059.09;;;35.06;44.32
54236;BME280;40151;43.606;1.472;2023-08-24T01:52:55;99051.16;;;35.04;43.91
54236;BME280;40151;43.606;1.472;2023-08-24T01:55:20;99057.63;;;35.03;43.74
54236;BME280;40151;43.606;1.472;2023-08-24T01:57:47;99046.97;;;35.02;44.20
54236;BME280;40151;43.606;1.472;2023-08-24T02:00:13;99055.28;;;35.00;44.10
54236;BME280;40151;43.606;1.472;2023-08-24T02:02:38;99046.13;;;35.01;43.92
54236;BME280;40151;43.606;1.472;2023-08-24T02:05:04;99047.38;;;34.99;44.19
54236;BME280;40151;43.606;1.472;2023-08-24T02:07:29;99048.81;;;35.01;44.33
54236;BME280;40151;43.606;1.472;2023-08-24T02:09:55;99046.53;;;34.98;43.94
54236;BME280;40151;43.606;1.472;2023-08-24T02:12:20;99043.19;;;34.96;44.06
54236;BME280;40151;43.606;1.472;2023-08-24T02:14:46;99043.19;;;34.96;43.83
54236;BME280;40151;43.606;1.472;2023-08-24T02:17:11;99038.16;;;34.93;43.94
54236;BME280;40151;43.606;1.472;2023-08-24T02:19:36;99039.81;;;34.94;44.01
54236;BME280;40151;43.606;1.472;2023-08-24T02:22:02;99033.75;;;34.92;44.00
54236;BME280;40151;43.606;1.472;2023-08-24T02:24:27;99031.06;;;34.92;44.31
54236;BME280;40151;43.606;1.472;2023-08-24T02:26:53;99034.81;;;34.91;43.98
54236;BME280;40151;43.606;1.472;2023-08-24T02:29:18;99033.13;;;34.90;44.01
54236;BME280;40151;43.606;1.472;2023-08-24T02:31:44;99036.66;;;34.90;44.45
54236;BME280;40151;43.606;1.472;2023-08-24T02:34:09;99034.81;;;34.91;44.34
54236;BME280;40151;43.606;1.472;2023-08-24T02:36:35;99026.69;;;34.91;44.26
54236;BME280;40151;43.606;1.472;2023-08-24T02:39:00;99025.19;;;34.88;44.01
54236;BME280;40151;43.606;1.472;2023-08-24T02:41:26;99012.69;;;34.87;44.13
54236;BME280;40151;43.606;1.472;2023-08-24T02:43:52;99010.16;;;34.86;43.92
54236;BME280;40151;43.606;1.472;2023-08-24T02:46:18;99014.91;;;34.84;43.88
54236;BME280;40151;43.606;1.472;2023-08-24T02:48:44;99012.22;;;34.84;44.15
54236;BME280;40151;43.606;1.472;2023-08-24T02:51:10;99012.44;;;34.82;43.84
54236;BME280;40151;43.606;1.472;2023-08-24T02:53:36;99001.78;;;34.80;44.13
54236;BME280;40151;43.606;1.472;2023-08-24T02:56:02;99009.28;;;34.78;44.01
54236;BME280;40151;43.606;1.472;2023-08-24T02:58:28;99003.88;;;34.78;44.11
54236;BME280;40151;43.606;1.472;2023-08-24T03:00:53;99007.59;;;34.77;44.04
54236;BME280;40151;43.606;1.472;2023-08-24T03:03:19;98994.03;;;34.77;44.10
54236;BME280;40151;43.606;1.472;2023-08-24T03:05:57;98992.56;;;34.75;43.92
54236;BME280;40151;43.606;1.472;2023-08-24T03:08:23;98995.47;;;34.73;43.53
54236;BME280;40151;43.606;1.472;2023-08-24T03:10:48;98997.53;;;34.71;43.69
54236;BME280;40151;43.606;1.472;2023-08-24T03:13:14;98997.53;;;34.71;43.74
54236;BME280;40151;43.606;1.472;2023-08-24T03:15:39;99003.34;;;34.68;43.83
54236;BME280;40151;43.606;1.472;2023-08-24T03:18:05;99003.53;;;34.66;43.58
54236;BME280;40151;43.606;1.472;2023-08-24T03:20:30;99004.59;;;34.65;43.55
54236;BME280;40151;43.606;1.472;2023-08-24T03:22:56;99010.81;;;34.66;43.96
54236;BME280;40151;43.606;1.472;2023-08-24T03:25:22;98998.72;;;34.62;43.51
54236;BME280;40151;43.606;1.472;2023-08-24T03:27:48;99005.19;;;34.61;43.86
54236;BME280;40151;43.606;1.472;2023-08-24T03:30:14;99007.88;;;34.61;43.77
54236;BME280;40151;43.606;1.472;2023-08-24T03:32:42;99004.50;;;34.59;43.75
54236;BME280;40151;43.606;1.472;2023-08-24T03:35:07;99000.75;;;34.60;43.55
54236;BME280;40151;43.606;1.472;2023-08-24T03:37:33;99003.22;;;34.54;43.88
54236;BME280;40151;43.606;1.472;2023-08-24T03:39:59;99002.19;;;34.55;43.91
54236;BME280;40151;43.606;1.472;2023-08-24T03:42:24;99001.50;;;34.53;43.89
54236;BME280;40151;43.606;1.472;2023-08-24T03:44:50;99003.41;;;34.53;43.88
54236;BME280;40151;43.606;1.472;2023-08-24T03:47:15;99005.25;;;34.52;44.00
54236;BME280;40151;43.606;1.472;2023-08-24T03:49:44;99001.75;;;34.52;43.77
54236;BME280;40151;43.606;1.472;2023-08-24T03:52:09;99003.59;;;34.51;43.87
54236;BME280;40151;43.606;1.472;2023-08-24T03:54:35;99004.63;;;34.50;43.90
54236;BME280;40151;43.606;1.472;2023-08-24T03:57:01;99006.31;;;34.51;44.09
54236;BME280;40151;43.606;1.472;2023-08-24T03:59:27;99009.41;;;34.48;43.73
54236;BME280;40151;43.606;1.472;2023-08-24T04:01:52;99009.41;;;34.48;43.79
54236;BME280;40151;43.606;1.472;2023-08-24T04:04:17;98999.41;;;34.49;43.79
54236;BME280;40151;43.606;1.472;2023-08-24T04:06:43;98998.59;;;34.48;44.05
54236;BME280;40151;43.606;1.472;2023-08-24T04:09:08;99000.63;;;34.46;44.04
54236;BME280;40151;43.606;1.472;2023-08-24T04:11:34;98996.06;;;34.47;43.91
54236;BME280;40151;43.606;1.472;2023-08-24T04:14:00;98998.97;;;34.45;43.70
54236;BME280;40151;43.606;1.472;2023-08-24T04:16:25;99004.38;;;34.45;43.94
54236;BME280;40151;43.606;1.472;2023-08-24T04:18:50;98994.75;;;34.42;43.62
54236;BME280;40151;43.606;1.472;2023-08-24T04:21:16;98993.09;;;34.41;43.58
54236;BME280;40151;43.606;1.472;2023-08-24T04:23:41;98990.56;;;34.40;43.77
54236;BME280;40151;43.606;1.472;2023-08-24T04:26:11;98994.31;;;34.39;43.70
54236;BME280;40151;43.606;1.472;2023-08-24T04:28:36;98997.03;;;34.39;43.81
54236;BME280;40151;43.606;1.472;2023-08-24T04:31:02;98993.69;;;34.37;43.91
54236;BME280;40151;43.606;1.472;2023-08-24T04:33:28;98998.44;;;34.35;43.54
54236;BME280;40151;43.606;1.472;2023-08-24T04:35:53;98998.44;;;34.35;43.88
54236;BME280;40151;43.606;1.472;2023-08-24T04:38:19;98995.72;;;34.35;43.94
54236;BME280;40151;43.606;1.472;2023-08-24T04:40:50;98996.94;;;34.32;44.05
54236;BME280;40151;43.606;1.472;2023-08-24T04:43:17;99003.22;;;34.33;43.94
54236;BME280;40151;43.606;1.472;2023-08-24T04:45:43;99006.31;;;34.30;43.63
54236;BME280;40151;43.606;1.472;2023-08-24T04:48:10;98997.53;;;34.27;43.62
54236;BME280;40151;43.606;1.472;2023-08-24T04:50:36;99002.97;;;34.27;43.90
54236;BME280;40151;43.606;1.472;2023-08-24T04:53:01;99001.91;;;34.28;43.96
54236;BME280;40151;43.606;1.472;2023-08-24T04:55:26;98999.63;;;34.25;43.96
54236;BME280;40151;43.606;1.472;2023-08-24T04:57:52;99001.28;;;34.26;43.63
54236;BME280;40151;43.606;1.472;2023-08-24T05:00:18;99005.66;;;34.27;44.05
54236;BME280;40151;43.606;1.472;2023-08-24T05:02:43;99000.00;;;34.22;43.90
54236;BME280;40151;43.606;1.472;2023-08-24T05:05:09;99000.00;;;34.22;43.74
54236;BME280;40151;43.606;1.472;2023-08-24T05:07:39;99001.66;;;34.23;44.00
54236;BME280;40151;43.606;1.472;2023-08-24T05:10:06;98999.16;;;34.22;43.72
54236;BME280;40151;43.606;1.472;2023-08-24T05:12:32;99006.25;;;34.23;43.85
54236;BME280;40151;43.606;1.472;2023-08-24T05:14:59;99006.25;;;34.23;43.77
54236;BME280;40151;43.606;1.472;2023-08-24T05:17:25;99005.22;;;34.24;43.93
54236;BME280;40151;43.606;1.472;2023-08-24T05:19:53;99006.88;;;34.25;44.03
54236;BME280;40151;43.606;1.472;2023-08-24T05:22:19;99006.69;;;34.26;43.73
54236;BME280;40151;43.606;1.472;2023-08-24T05:24:45;99010.63;;;34.24;43.70
54236;BME280;40151;43.606;1.472;2023-08-24T05:27:10;99018.94;;;34.22;44.02
54236;BME280;40151;43.606;1.472;2023-08-24T05:29:35;99014.56;;;34.21;43.69
54236;BME280;40151;43.606;1.472;2023-08-24T05:32:02;99013.94;;;34.19;44.00
54236;BME280;40151;43.606;1.472;2023-08-24T05:34:28;99019.34;;;34.19;43.77
54236;BME280;40151;43.606;1.472;2023-08-24T05:36:53;99021.19;;;34.19;43.79
54236;BME280;40151;43.606;1.472;2023-08-24T05:39:19;99023.06;;;34.18;43.93
54236;BME280;40151;43.606;1.472;2023-08-24T05:41:44;99025.75;;;34.18;43.90
54236;BME280;40151;43.606;1.472;2023-08-24T05:44:09;99031.16;;;34.18;43.88
54236;BME280;40151;43.606;1.472;2023-08-24T05:46:35;99034.91;;;34.17;44.17
54236;BME280;40151;43.606;1.472;2023-08-24T05:49:00;99027.84;;;34.16;44.02
54236;BME280;40151;43.606;1.472;2023-08-24T05:51:26;99033.25;;;34.16;43.51
54236;BME280;40151;43.606;1.472;2023-08-24T05:53:51;99033.25;;;34.16;44.07
54236;BME280;40151;43.606;1.472;2023-08-24T05:56:23;99036.59;;;34.18;43.93
54236;BME280;40151;43.606;1.472;2023-08-24T05:58:49;99026.78;;;34.17;44.10
54236;BME280;40151;43.606;1.472;2023-08-24T06:01:14;99029.50;;;34.17;43.85
54236;BME280;40151;43.606;1.472;2023-08-24T06:03:39;99031.84;;;34.20;44.05
54236;BME280;40151;43.606;1.472;2023-08-24T06:06:05;99036.59;;;34.18;43.81
54236;BME280;40151;43.606;1.472;2023-08-24T06:08:31;99032.88;;;34.19;43.86
54236;BME280;40151;43.606;1.472;2023-08-24T06:10:57;99035.59;;;34.19;43.95
54236;BME280;40151;43.606;1.472;2023-08-24T06:13:23;99041.19;;;34.18;43.96
54236;BME280;40151;43.606;1.472;2023-08-24T06:15:49;99038.66;;;34.16;43.99
54236;BME280;40151;43.606;1.472;2023-08-24T06:18:14;99030.94;;;34.13;44.08
54236;BME280;40151;43.606;1.472;2023-08-24T06:20:40;99044.47;;;34.13;44.06
54236;BME280;40151;43.606;1.472;2023-08-24T06:23:06;99034.47;;;34.13;44.13
54236;BME280;40151;43.606;1.472;2023-08-24T06:25:33;99032.59;;;34.14;43.71
54236;BME280;40151;43.606;1.472;2023-08-24T06:27:58;99037.00;;;34.15;43.97
54236;BME280;40151;43.606;1.472;2023-08-24T06:30:25;99026.34;;;34.13;43.51
54236;BME280;40151;43.606;1.472;2023-08-24T06:32:50;99030.72;;;34.14;43.78
54236;BME280;40151;43.606;1.472;2023-08-24T06:35:16;99027.38;;;34.12;44.05
54236;BME280;40151;43.606;1.472;2023-08-24T06:37:42;99022.81;;;34.13;43.73
54236;BME280;40151;43.606;1.472;2023-08-24T06:40:08;99029.06;;;34.13;44.02
54236;BME280;40151;43.606;1.472;2023-08-24T06:42:34;99031.38;;;34.17;43.85
54236;BME280;40151;43.606;1.472;2023-08-24T06:44:59;99034.09;;;34.17;44.06
54236;BME280;40151;43.606;1.472;2023-08-24T06:47:25;99030.53;;;34.16;43.80
54236;BME280;40151;43.606;1.472;2023-08-24T06:49:50;99026.78;;;34.17;43.74
54236;BME280;40151;43.606;1.472;2023-08-24T06:52:16;99027.84;;;34.16;43.85
54236;BME280;40151;43.606;1.472;2023-08-24T06:54:41;99024.75;;;34.19;43.59
54236;BME280;40151;43.606;1.472;2023-08-24T06:57:07;99030.16;;;34.19;44.01
54236;BME280;40151;43.606;1.472;2023-08-24T06:59:32;99037.25;;;34.20;43.99
54236;BME280;40151;43.606;1.472;2023-08-24T07:01:57;99035.38;;;34.21;43.74
54236;BME280;40151;43.606;1.472;2023-08-24T07:04:23;99045.38;;;34.20;44.11
54236;BME280;40151;43.606;1.472;2023-08-24T07:06:48;99038.06;;;34.21;44.14
54236;BME280;40151;43.606;1.472;2023-08-24T07:09:14;99043.31;;;34.22;44.03
54236;BME280;40151;43.606;1.472;2023-08-24T07:11:40;99041.22;;;34.24;43.86
54236;BME280;40151;43.606;1.472;2023-08-24T07:14:06;99039.19;;;34.26;44.17
54236;BME280;40151;43.606;1.472;2023-08-24T07:16:31;99037.53;;;34.25;43.95
54236;BME280;40151;43.606;1.472;2023-08-24T07:18:56;99028.38;;;34.26;44.02
54236;BME280;40151;43.606;1.472;2023-08-24T07:21:22;99035.44;;;34.27;43.95
54236;BME280;40151;43.606;1.472;2023-08-24T07:23:48;99030.88;;;34.28;43.77
54236;BME280;40151;43.606;1.472;2023-08-24T07:26:13;99025.25;;;34.30;43.88
54236;BME280;40151;43.606;1.472;2023-08-24T07:28:39;99032.38;;;34.31;43.62
54236;BME280;40151;43.606;1.472;2023-08-24T07:31:11;99027.97;;;34.30;44.07
54236;BME280;40151;43.606;1.472;2023-08-24T07:33:37;99023.22;;;34.32;43.93
54236;BME280;40151;43.606;1.472;2023-08-24T07:36:06;99025.91;;;34.32;43.93
54236;BME280;40151;43.606;1.472;2023-08-24T07:38:31;99019.47;;;34.33;43.84
54236;BME280;40151;43.606;1.472;2023-08-24T07:40:58;99015.91;;;34.32;43.86
54236;BME280;40151;43.606;1.472;2023-08-24T07:43:23;99011.97;;;34.35;43.70
54236;BME280;40151;43.606;1.472;2023-08-24T07:45:49;98998.44;;;34.35;44.13
54236;BME280;40151;43.606;1.472;2023-08-24T07:48:15;99000.09;;;34.36;44.04
54236;BME280;40151;43.606;1.472;2023-08-24T07:50:40;98997.88;;;34.39;43.73
54236;BME280;40151;43.606;1.472;2023-08-24T07:53:06;98996.00;;;34.40;43.96
54236;BME280;40151;43.606;1.472;2023-08-24T07:55:31;98996.00;;;34.40;43.66
54236;BME280;40151;43.606;1.472;2023-08-24T07:57:57;98994.94;;;34.41;43.83
54236;BME280;40151;43.606;1.472;2023-08-24T08:00:22;98998.50;;;34.41;43.90
54236;BME280;40151;43.606;1.472;2023-08-24T08:02:50;99003.94;;;34.41;43.60
54236;BME280;40151;43.606;1.472;2023-08-24T08:05:16;99003.94;;;34.41;43.84
54236;BME280;40151;43.606;1.472;2023-08-24T08:07:42;99000.38;;;34.41;44.07
54236;BME280;40151;43.606;1.472;2023-08-24T08:10:07;99004.13;;;34.40;43.83
54236;BME280;40151;43.606;1.472;2023-08-24T08:12:33;99004.97;;;34.40;43.60
54236;BME280;40151;43.606;1.472;2023-08-24T08:14:59;99003.06;;;34.41;43.48
54236;BME280;40151;43.606;1.472;2023-08-24T08:17:26;99009.53;;;34.40;43.60
54236;BME280;40151;43.606;1.472;2023-08-24T08:19:56;99004.75;;;34.42;43.63
54236;BME280;40151;43.606;1.472;2023-08-24T08:22:22;98997.28;;;34.44;43.38
54236;BME280;40151;43.606;1.472;2023-08-24T08:24:47;99003.75;;;34.43;43.40
54236;BME280;40151;43.606;1.472;2023-08-24T08:27:13;99006.22;;;34.45;43.48
54236;BME280;40151;43.606;1.472;2023-08-24T08:29:38;99011.47;;;34.46;43.44
54236;BME280;40151;43.606;1.472;2023-08-24T08:32:04;99005.22;;;34.46;43.49
54236;BME280;40151;43.606;1.472;2023-08-24T08:34:31;99012.50;;;34.45;43.36
54236;BME280;40151;43.606;1.472;2023-08-24T08:36:56;99014.16;;;34.46;43.01
54236;BME280;40151;43.606;1.472;2023-08-24T08:39:22;99020.63;;;34.45;43.08
54236;BME280;40151;43.606;1.472;2023-08-24T08:41:48;99019.41;;;34.48;43.29
54236;BME280;40151;43.606;1.472;2023-08-24T08:44:15;99013.13;;;34.47;43.10
54236;BME280;40151;43.606;1.472;2023-08-24T08:46:42;99012.50;;;34.45;43.41
54236;BME280;40151;43.606;1.472;2023-08-24T08:49:08;99010.25;;;34.49;43.52
54236;BME280;40151;43.606;1.472;2023-08-24T08:51:38;99007.72;;;34.47;43.14
54236;BME280;40151;43.606;1.472;2023-08-24T08:54:04;99008.75;;;34.46;43.40
54236;BME280;40151;43.606;1.472;2023-08-24T08:56:31;98996.88;;;34.47;43.50
54236;BME280;40151;43.606;1.472;2023-08-24T08:58:58;99004.00;;;34.48;43.19
54236;BME280;40151;43.606;1.472;2023-08-24T09:01:24;99006.50;;;34.50;43.65
54236;BME280;40151;43.606;1.472;2023-08-24T09:03:51;99004.63;;;34.50;43.54
54236;BME280;40151;43.606;1.472;2023-08-24T09:06:17;99003.59;;;34.51;43.25
54236;BME280;40151;43.606;1.472;2023-08-24T09:08:43;99003.59;;;34.51;43.38
54236;BME280;40151;43.606;1.472;2023-08-24T09:11:09;98999.03;;;34.52;43.16
54236;BME280;40151;43.606;1.472;2023-08-24T09:13:35;99001.94;;;34.50;43.61
54236;BME280;40151;43.606;1.472;2023-08-24T09:16:05;98998.19;;;34.51;43.13
54236;BME280;40151;43.606;1.472;2023-08-24T09:18:38;99000.88;;;34.51;43.58
54236;BME280;40151;43.606;1.472;2023-08-24T09:21:11;98999.84;;;34.52;43.33
54236;BME280;40151;43.606;1.472;2023-08-24T09:23:37;99002.38;;;34.54;43.55
54236;BME280;40151;43.606;1.472;2023-08-24T09:26:04;99006.75;;;34.55;43.26
54236;BME280;40151;43.606;1.472;2023-08-24T09:28:30;99004.88;;;34.55;43.28
54236;BME280;40151;43.606;1.472;2023-08-24T09:31:00;99012.16;;;34.55;43.08
54236;BME280;40151;43.606;1.472;2023-08-24T09:33:26;99006.56;;;34.57;43.41
54236;BME280;40151;43.606;1.472;2023-08-24T09:35:53;99010.97;;;34.58;43.22
54236;BME280;40151;43.606;1.472;2023-08-24T09:38:21;99009.94;;;34.59;43.22
54236;BME280;40151;43.606;1.472;2023-08-24T09:40:50;99007.03;;;34.60;43.29
54236;BME280;40151;43.606;1.472;2023-08-24T09:43:16;99013.31;;;34.61;43.20
54236;BME280;40151;43.606;1.472;2023-08-24T09:45:52;99010.59;;;34.61;43.42
54236;BME280;40151;43.606;1.472;2023-08-24T09:48:18;99013.31;;;34.61;43.60
54236;BME280;40151;43.606;1.472;2023-08-24T09:50:49;99001.63;;;34.60;43.29
54236;BME280;40151;43.606;1.472;2023-08-24T09:53:22;99002.47;;;34.61;43.43
54236;BME280;40151;43.606;1.472;2023-08-24T09:55:57;99008.53;;;34.63;43.29
54236;BME280;40151;43.606;1.472;2023-08-24T09:58:23;99006.84;;;34.62;43.24
54236;BME280;40151;43.606;1.472;2023-08-24T10:00:49;99013.94;;;34.63;43.31
54236;BME280;40151;43.606;1.472;2023-08-24T10:03:18;99009.56;;;34.62;43.63
54236;BME280;40151;43.606;1.472;2023-08-24T10:05:52;99007.47;;;34.64;43.68
54236;BME280;40151;43.606;1.472;2023-08-24T10:08:26;99003.72;;;34.65;43.21
54236;BME280;40151;43.606;1.472;2023-08-24T10:10:53;99005.41;;;34.66;43.56
54236;BME280;40151;43.606;1.472;2023-08-24T10:13:44;98991.84;;;34.66;43.46
54236;BME280;40151;43.606;1.472;2023-08-24T10:16:12;98996.28;;;34.67;43.34
54236;BME280;40151;43.606;1.472;2023-08-24T10:18:40;99002.50;;;34.67;43.53
54236;BME280;40151;43.606;1.472;2023-08-24T10:21:06;98995.03;;;34.70;43.45
54236;BME280;40151;43.606;1.472;2023-08-24T10:23:36;98988.78;;;34.69;43.16
54236;BME280;40151;43.606;1.472;2023-08-24T10:26:03;98998.38;;;34.72;43.64
54236;BME280;40151;43.606;1.472;2023-08-24T10:28:29;98996.72;;;34.71;43.46
54236;BME280;40151;43.606;1.472;2023-08-24T10:30:57;98997.34;;;34.73;43.69
54236;BME280;40151;43.606;1.472;2023-08-24T10:33:23;98998.19;;;34.73;43.55
54236;BME280;40151;43.606;1.472;2023-08-24T10:35:49;98999.84;;;34.74;43.56
54236;BME280;40151;43.606;1.472;2023-08-24T10:38:41;99005.28;;;34.74;43.56
54236;BME280;40151;43.606;1.472;2023-08-24T10:41:10;98995.91;;;34.77;43.46
54236;BME280;40151;43.606;1.472;2023-08-24T10:43:40;99004.06;;;34.77;43.44
54236;BME280;40151;43.606;1.472;2023-08-24T10:46:13;99002.16;;;34.77;43.31
54236;BME280;40151;43.606;1.472;2023-08-24T10:53:45;99004.69;;;34.79;43.46
54236;BME280;40151;43.606;1.472;2023-08-24T10:56:16;98998.03;;;34.81;43.23
54236;BME280;40151;43.606;1.472;2023-08-24T10:58:42;99000.75;;;34.81;43.70
54236;BME280;40151;43.606;1.472;2023-08-24T11:01:19;99005.13;;;34.83;43.43
54236;BME280;40151;43.606;1.472;2023-08-24T11:03:50;98999.69;;;34.83;43.77
54236;BME280;40151;43.606;1.472;2023-08-24T11:06:23;99001.38;;;34.84;43.61
54236;BME280;40151;43.606;1.472;2023-08-24T11:09:05;98995.75;;;34.85;43.44
54236;BME280;40151;43.606;1.472;2023-08-24T11:11:31;98995.56;;;34.87;43.38
54236;BME280;40151;43.606;1.472;2023-08-24T11:14:19;98991.00;;;34.87;43.41
54236;BME280;40151;43.606;1.472;2023-08-24T11:16:48;98991.00;;;34.87;43.57
54236;BME280;40151;43.606;1.472;2023-08-24T11:19:14;98983.50;;;34.89;43.56
54236;BME280;40151;43.606;1.472;2023-08-24T11:21:40;98989.78;;;34.90;43.50
54236;BME280;40151;43.606;1.472;2023-08-24T11:24:06;98977.88;;;34.91;43.52
54236;BME280;40151;43.606;1.472;2023-08-24T11:26:34;98982.28;;;34.92;43.69
54236;BME280;40151;43.606;1.472;2023-08-24T11:28:59;98975.81;;;34.93;43.31
54236;BME280;40151;43.606;1.472;2023-08-24T11:31:25;98976.44;;;34.95;43.53
54236;BME280;40151;43.606;1.472;2023-08-24T11:33:54;98973.09;;;34.93;43.48
54236;BME280;40151;43.606;1.472;2023-08-24T11:36:23;98972.72;;;34.96;43.60
54236;BME280;40151;43.606;1.472;2023-08-24T11:38:51;98973.34;;;34.98;43.64
54236;BME280;40151;43.606;1.472;2023-08-24T11:41:17;98970.00;;;34.96;43.43
54236;BME280;40151;43.606;1.472;2023-08-24T11:43:44;98965.22;;;34.98;43.40
54236;BME280;40151;43.606;1.472;2023-08-24T11:46:10;98973.16;;;35.00;43.57
54236;BME280;40151;43.606;1.472;2023-08-24T11:48:35;98972.94;;;35.01;43.58
54236;BME280;40151;43.606;1.472;2023-08-24T11:51:02;98966.50;;;35.02;43.90
54236;BME280;40151;43.606;1.472;2023-08-24T11:53:28;98961.91;;;35.03;43.75
54236;BME280;40151;43.606;1.472;2023-08-24T11:55:54;98961.69;;;35.04;43.72
54236;BME280;40151;43.606;1.472;2023-08-24T11:58:20;98964.41;;;35.04;43.64
54236;BME280;40151;43.606;1.472;2023-08-24T12:00:46;98955.25;;;35.05;43.90
54236;BME280;40151;43.606;1.472;2023-08-24T12:03:12;98953.19;;;35.07;43.54
54236;BME280;40151;43.606;1.472;2023-08-24T12:05:38;98955.91;;;35.07;43.72
54236;BME280;40151;43.606;1.472;2023-08-24T12:08:06;98952.16;;;35.08;43.79
54236;BME280;40151;43.606;1.472;2023-08-24T12:10:31;98957.38;;;35.10;43.65
54236;BME280;40151;43.606;1.472;2023-08-24T12:13:02;98955.50;;;35.11;43.76
54236;BME280;40151;43.606;1.472;2023-08-24T12:15:29;98952.59;;;35.12;43.69
54236;BME280;40151;43.606;1.472;2023-08-24T12:17:54;98956.13;;;35.13;43.83
54236;BME280;40151;43.606;1.472;2023-08-24T12:20:21;98947.00;;;35.14;43.54
54236;BME280;40151;43.606;1.472;2023-08-24T12:22:56;98942.38;;;35.14;43.56
54236;BME280;40151;43.606;1.472;2023-08-24T12:25:22;98946.56;;;35.17;43.58
54236;BME280;40151;43.606;1.472;2023-08-24T12:27:49;98946.56;;;35.17;43.83
54236;BME280;40151;43.606;1.472;2023-08-24T12:30:14;98952.63;;;35.19;43.94
54236;BME280;40151;43.606;1.472;2023-08-24T12:32:44;98946.19;;;35.20;43.46
54236;BME280;40151;43.606;1.472;2023-08-24T12:35:10;98947.84;;;35.21;43.64
54236;BME280;40151;43.606;1.472;2023-08-24T12:37:36;98948.69;;;35.21;43.95
54236;BME280;40151;43.606;1.472;2023-08-24T12:40:02;98944.09;;;35.22;43.82
54236;BME280;40151;43.606;1.472;2023-08-24T12:42:31;98940.34;;;35.23;43.48
54236;BME280;40151;43.606;1.472;2023-08-24T12:44:56;98941.00;;;35.25;43.60
54236;BME280;40151;43.606;1.472;2023-08-24T12:47:22;98939.97;;;35.26;43.71
54236;BME280;40151;43.606;1.472;2023-08-24T12:49:47;98927.22;;;35.27;43.60
54236;BME280;40151;43.606;1.472;2023-08-24T12:52:13;98937.88;;;35.28;43.48
54236;BME280;40151;43.606;1.472;2023-08-24T12:54:39;98925.16;;;35.29;44.01
54236;BME280;40151;43.606;1.472;2023-08-24T12:57:04;98924.94;;;35.30;43.72
54236;BME280;40151;43.606;1.472;2023-08-24T12:59:30;98924.94;;;35.30;43.61
54236;BME280;40151;43.606;1.472;2023-08-24T13:01:55;98923.69;;;35.33;44.07
54236;BME280;40151;43.606;1.472;2023-08-24T13:04:21;98919.13;;;35.33;43.71